Time;durP1;ratioP1;P1;durP2;ratioP2;P2;SDS_P1;SDS_P2;PMS_P1;PMS_P2;Temp;Humidity;BMP_temperature;BMP_pressure;BME280_temperature;BME280_humidity;BME280_pressure;Samples;Min_cycle;Max_cycle;Signal;HPM_P1;HPM_P2
2022/02/28 00:03:13;;;;;;;65.60;60.57;;;;;;;4.45;100.00;102400.98;1905913;74;86537;-67
2022/02/28 00:08:57;;;;;;;65.03;59.63;;;;;;;4.48;100.00;102401.12;1807559;78;86373;-76
2022/02/28 00:14:41;;;;;;;64.47;59.87;;;;;;;4.59;100.00;102388.12;1799036;77;86277;-68
2022/02/28 00:20:25;;;;;;;63.87;59.33;;;;;;;4.78;100.00;102388.70;1944008;70;39545;-78
2022/02/28 00:26:11;;;;;;;64.17;59.43;;;;;;;5.17;100.00;102388.41;1851758;76;86279;-67
2022/02/28 00:31:54;;;;;;;63.53;59.13;;;;;;;5.57;100.00;102393.34;1885853;73;86287;-67
2022/02/28 00:34:25;;;;;;;65.73;61.03;;;;;;;5.48;100.00;102404.59;1848193;75;936872;-68
2022/02/28 00:40:12;;;;;;;64.23;59.57;;;;;;;5.40;100.00;102399.30;1843390;76;86519;-79
2022/02/28 00:45:57;;;;;;;65.87;61.03;;;;;;;5.72;100.00;102409.13;1802357;78;86462;-79
2022/02/28 00:51:41;;;;;;;66.83;61.73;;;;;;;5.45;100.00;102407.78;1865985;74;86279;-67
2022/02/28 00:57:26;;;;;;;67.93;63.07;;;;;;;5.71;100.00;102393.64;1985132;71;39552;-79
2022/02/28 01:03:14;;;;;;;66.20;61.00;;;;;;;5.83;100.00;102389.15;1809950;78;86474;-79
2022/02/28 01:08:57;;;;;;;65.67;60.77;;;;;;;5.97;100.00;102373.45;1807911;78;86696;-66
2022/02/28 01:14:41;;;;;;;67.50;62.33;;;;;;;6.17;100.00;102388.84;1866909;76;85800;-78
2022/02/28 01:20:25;;;;;;;64.87;60.03;;;;;;;6.27;100.00;102385.10;1985943;71;39577;-77
2022/02/28 01:26:10;;;;;;;68.17;63.07;;;;;;;6.02;100.00;102399.32;1828222;75;85983;-77
2022/02/28 01:31:54;;;;;;;65.97;61.07;;;;;;;6.18;100.00;102407.11;1885405;74;86354;-78
2022/02/28 01:37:39;;;;;;;66.90;61.90;;;;;;;6.19;100.00;102425.89;1871160;75;86605;-77
2022/02/28 01:43:22;;;;;;;68.20;62.97;;;;;;;6.00;100.00;102414.38;1986413;71;39529;-67
2022/02/28 01:49:08;;;;;;;67.63;62.67;;;;;;;6.10;100.00;102403.21;1820529;76;85828;-67
2022/02/28 01:54:53;;;;;;;68.33;63.33;;;;;;;5.95;100.00;102391.58;1881596;73;86566;-67
2022/02/28 02:00:37;;;;;;;69.13;64.10;;;;;;;6.01;100.00;102396.23;1871435;75;85768;-79
2022/02/28 02:06:22;;;;;;;66.47;61.47;;;;;;;5.87;100.00;102400.09;1980885;71;39774;-66
2022/02/28 02:12:09;;;;;;;68.07;63.07;;;;;;;5.80;100.00;102403.37;1827373;75;86476;-67
2022/02/28 02:17:56;;;;;;;68.20;63.07;;;;;;;5.81;100.00;102410.59;1884167;74;86682;-67
2022/02/28 02:23:50;;;;;;;68.30;62.97;;;;;;;5.60;100.00;102410.32;1888793;74;86546;-67
2022/02/28 02:29:38;;;;;;;69.37;64.00;;;;;;;5.55;100.00;102407.88;1808558;77;86749;-78
2022/02/28 02:35:24;;;;;;;70.20;65.00;;;;;;;5.48;100.00;102407.34;1940121;71;39628;-78
2022/02/28 02:41:09;;;;;;;68.30;63.17;;;;;;;5.59;100.00;102401.73;1837776;76;86557;-68
2022/02/28 02:46:54;;;;;;;69.57;63.93;;;;;;;5.70;100.00;102389.18;1896748;74;86484;-67
2022/02/28 02:52:38;;;;;;;68.07;62.90;;;;;;;5.84;100.00;102404.64;1799315;77;86355;-67
2022/02/28 02:58:24;;;;;;;69.87;64.40;;;;;;;5.68;100.00;102408.71;1977344;71;39770;-68
2022/02/28 03:04:09;;;;;;;67.50;62.40;;;;;;;6.00;100.00;102410.23;1838735;76;86586;-68
2022/02/28 03:09:51;;;;;;;66.83;61.73;;;;;;;6.08;100.00;102407.23;1881563;74;86205;-77
2022/02/28 03:15:36;;;;;;;69.87;64.67;;;;;;;6.41;100.00;102405.21;1961858;72;86530;-67
2022/02/28 03:21:20;;;;;;;67.90;62.83;;;;;;;6.65;100.00;102398.91;1986595;71;40447;-77
2022/02/28 03:27:05;;;;;;;68.63;63.40;;;;;;;6.78;100.00;102403.50;1845174;76;86276;-68
2022/02/28 03:32:51;;;;;;;70.20;64.73;;;;;;;7.00;100.00;102410.37;1889365;74;86283;-67
2022/02/28 03:38:36;;;;;;;69.67;64.63;;;;;;;7.26;100.00;102409.32;1913400;72;86476;-68
2022/02/28 03:44:20;;;;;;;70.80;65.57;;;;;;;7.30;100.00;102404.50;1983486;71;39546;-78
2022/02/28 03:50:05;;;;;;;69.67;64.57;;;;;;;7.33;100.00;102409.56;1979641;71;86336;-79
2022/02/28 03:55:49;;;;;;;71.00;65.93;;;;;;;7.56;100.00;102407.56;1903238;73;86585;-68
2022/02/28 04:01:34;;;;;;;68.23;63.23;;;;;;;7.68;100.00;102404.89;1905790;72;86219;-67
2022/02/28 04:07:18;;;;;;;69.90;64.60;;;;;;;7.68;100.00;102396.59;1957750;71;39617;-77
2022/02/28 04:13:02;;;;;;;70.97;65.77;;;;;;;7.73;100.00;102389.30;1841421;76;86369;-69
2022/02/28 04:18:46;;;;;;;69.70;64.70;;;;;;;7.91;100.00;102384.86;1876939;75;86365;-68
2022/02/28 04:24:32;;;;;;;68.53;63.57;;;;;;;7.97;100.00;102385.30;1907701;72;86500;-77
2022/02/28 04:30:18;;;;;;;68.40;63.17;;;;;;;8.04;100.00;102388.86;1982641;71;39668;-78
2022/02/28 04:36:02;;;;;;;69.73;64.40;;;;;;;7.95;100.00;102384.70;1832386;76;86322;-74
2022/02/28 04:41:46;;;;;;;72.77;66.90;;;;;;;8.15;100.00;102390.84;1888812;73;86327;-67
2022/02/28 04:47:30;;;;;;;70.87;65.37;;;;;;;7.98;100.00;102388.39;1914311;74;86424;-68
2022/02/28 04:53:14;;;;;;;70.27;65.03;;;;;;;8.13;100.00;102395.22;1977392;71;39703;-78
2022/02/28 04:58:59;;;;;;;71.07;66.03;;;;;;;8.06;100.00;102387.54;1881372;75;85359;-67
2022/02/28 05:04:41;;;;;;;69.40;64.50;;;;;;;8.09;100.00;102381.53;1760576;79;86463;-78
2022/02/28 05:10:24;;;;;;;72.10;66.90;;;;;;;8.04;100.00;102395.24;1985999;71;39759;-68
2022/02/28 05:16:09;;;;;;;71.10;65.83;;;;;;;8.07;100.00;102391.16;1881748;74;86061;-77
2022/02/28 05:21:55;;;;;;;73.67;68.57;;;;;;;8.12;100.00;102392.70;1894855;73;86331;-67
2022/02/28 05:27:43;;;;;;;73.13;67.90;;;;;;;8.07;100.00;102395.31;1806440;77;86319;-68
2022/02/28 05:33:29;;;;;;;72.87;67.83;;;;;;;8.09;100.00;102387.60;1910604;74;86395;-69
2022/02/28 05:39:13;;;;;;;69.50;64.00;;;;;;;8.00;100.00;102392.59;1872628;74;85341;-77
2022/02/28 05:44:58;;;;;;;69.53;64.17;;;;;;;8.23;100.00;102387.22;1801079;78;86480;-78
2022/02/28 05:50:42;;;;;;;69.57;64.37;;;;;;;8.13;100.00;102381.38;1816777;78;86683;-77
2022/02/28 05:56:25;;;;;;;72.57;67.37;;;;;;;8.33;100.00;102378.41;1924462;71;39636;-68
2022/02/28 06:02:09;;;;;;;71.30;65.77;;;;;;;8.34;100.00;102370.95;1848521;76;86616;-68
2022/02/28 06:07:52;;;;;;;72.30;66.90;;;;;;;8.37;100.00;102369.94;1888499;74;85557;-67
2022/02/28 06:13:36;;;;;;;70.97;65.77;;;;;;;8.33;100.00;102372.02;1869045;75;86525;-67
2022/02/28 06:19:21;;;;;;;70.17;64.83;;;;;;;8.35;100.00;102388.69;1982657;71;39479;-78
2022/02/28 06:25:07;;;;;;;70.73;65.47;;;;;;;8.29;100.00;102377.69;1839806;76;85982;-76
2022/02/28 06:30:51;;;;;;;70.40;65.27;;;;;;;8.36;100.00;102375.70;1886605;74;85483;-77
2022/02/28 06:36:35;;;;;;;68.37;63.20;;;;;;;8.38;100.00;102374.41;1940630;73;86513;-77
2022/02/28 06:42:22;;;;;;;72.13;66.83;;;;;;;8.37;100.00;102399.01;1942608;71;39366;-68
2022/02/28 06:48:09;;;;;;;70.20;65.07;;;;;;;8.51;100.00;102407.45;1834701;76;86453;-68
2022/02/28 06:53:53;;;;;;;69.57;64.37;;;;;;;8.40;100.00;102407.38;1906035;73;86279;-77
2022/02/28 06:59:37;;;;;;;71.77;66.67;;;;;;;8.49;100.00;102411.52;1868948;75;86559;-67
2022/02/28 07:05:20;;;;;;;70.27;65.20;;;;;;;8.45;100.00;102409.77;1986956;71;39592;-75
2022/02/28 07:11:04;;;;;;;73.90;68.60;;;;;;;8.56;100.00;102415.88;1836976;76;85831;-68
2022/02/28 07:16:51;;;;;;;71.80;66.40;;;;;;;8.56;100.00;102433.03;1841559;76;86270;-67
2022/02/28 07:22:38;;;;;;;73.30;67.83;;;;;;;8.64;100.00;102429.97;1801473;77;86302;-67
2022/02/28 07:28:23;;;;;;;69.43;64.20;;;;;;;8.70;100.00;102431.79;1981255;71;39764;-68
2022/02/28 07:34:09;;;;;;;71.67;66.17;;;;;;;8.77;100.00;102432.53;1841595;76;86318;-67
2022/02/28 07:39:53;;;;;;;73.07;67.57;;;;;;;8.80;100.00;102430.70;1879962;74;85380;-78
2022/02/28 07:45:37;;;;;;;70.13;64.77;;;;;;;8.90;100.00;102432.34;1808220;77;86091;-76
2022/02/28 07:54:28;;;;;;;66.50;60.90;;;;;;;9.12;100.00;102425.19;1895174;75;86382;-67
2022/02/28 07:56:58;;;;;;;66.77;61.40;;;;;;;9.07;100.00;102425.05;1861069;76;934865;-67
2022/02/28 07:59:29;;;;;;;70.40;64.63;;;;;;;9.19;100.00;102428.41;1794252;78;938794;-75
2022/02/28 08:01:59;;;;;;;74.67;68.77;;;;;;;9.30;100.00;102423.42;1792351;77;936858;-70
2022/02/28 08:07:43;;;;;;;66.87;61.47;;;;;;;9.37;100.00;102418.62;1879193;75;86689;-71
2022/02/28 08:13:28;;;;;;;69.27;63.90;;;;;;;9.56;100.00;102419.66;1950447;72;86592;-76
2022/02/28 08:19:12;;;;;;;66.87;61.63;;;;;;;9.78;100.00;102431.55;1947827;72;86343;-77
2022/02/28 08:24:58;;;;;;;66.90;61.67;;;;;;;9.75;100.00;102424.56;1808021;78;86189;-76
2022/02/28 08:30:42;;;;;;;68.40;63.30;;;;;;;9.72;100.00;102426.95;1798968;77;86315;-73
2022/02/28 08:36:26;;;;;;;67.93;62.73;;;;;;;9.82;100.00;102418.88;1982910;71;39555;-78
2022/02/28 08:42:11;;;;;;;66.60;61.60;;;;;;;9.81;100.00;102424.96;1824626;76;86248;-78
2022/02/28 08:47:55;;;;;;;64.90;59.80;;;;;;;9.98;100.00;102432.01;1911078;72;86332;-79
2022/02/28 08:53:40;;;;;;;71.83;66.10;;;;;;;10.09;100.00;102435.88;1800582;77;86285;-78
2022/02/28 08:59:27;;;;;;;71.17;65.57;;;;;;;10.16;100.00;102443.02;1929869;71;40211;-78
2022/02/28 09:05:12;;;;;;;71.97;66.57;;;;;;;10.16;100.00;102443.55;1841251;76;86602;-78
2022/02/28 09:10:55;;;;;;;66.90;62.07;;;;;;;10.15;100.00;102443.22;1885154;74;86194;-71
2022/02/28 09:16:39;;;;;;;68.43;63.30;;;;;;;10.23;100.00;102431.76;1798974;77;85621;-77
2022/02/28 09:22:25;;;;;;;68.00;62.73;;;;;;;10.31;100.00;102438.36;1975429;71;39689;-78
2022/02/28 09:28:11;;;;;;;65.70;60.47;;;;;;;10.32;100.00;102431.69;1839363;76;85997;-79
2022/02/28 09:33:55;;;;;;;69.50;64.00;;;;;;;10.54;100.00;102448.54;1841916;76;86268;-77
2022/02/28 09:39:42;;;;;;;69.13;63.97;;;;;;;10.74;100.00;102444.81;1806411;77;86632;-78
2022/02/28 09:45:28;;;;;;;67.00;61.30;;;;;;;10.85;100.00;102438.34;1975881;71;39680;-73
2022/02/28 09:51:12;;;;;;;67.03;61.67;;;;;;;11.08;100.00;102439.60;1802785;78;86201;-71
2022/02/28 09:56:57;;;;;;;66.20;60.77;;;;;;;11.13;100.00;102441.09;1808818;78;85466;-72
2022/02/28 10:02:41;;;;;;;66.20;60.83;;;;;;;11.34;100.00;102438.12;1864523;74;86000;-76
2022/02/28 10:08:26;;;;;;;66.07;60.77;;;;;;;11.42;100.00;102441.91;1985090;71;39565;-75
2022/02/28 10:14:12;;;;;;;68.90;63.73;;;;;;;11.41;100.00;102438.28;1844845;75;86302;-72
2022/02/28 10:20:01;;;;;;;70.33;64.33;;;;;;;11.45;100.00;102444.72;1801693;78;86208;-79
2022/02/28 10:25:53;;;;;;;70.10;64.80;;;;;;;11.31;100.00;102442.27;1904983;73;86249;-72
2022/02/28 10:31:38;;;;;;;66.97;61.80;;;;;;;11.50;100.00;102435.92;1928657;73;85629;-67
2022/02/28 10:37:34;;;;;;;66.10;60.97;;;;;;;11.50;100.00;102434.53;1914717;73;86317;-75
2022/02/28 10:43:26;;;;;;;69.57;64.23;;;;;;;11.48;100.00;102433.08;1977662;71;39630;-69
2022/02/28 10:49:16;;;;;;;68.00;62.83;;;;;;;11.43;100.00;102433.84;1853684;76;86327;-79
2022/02/28 10:55:08;;;;;;;72.47;66.90;;;;;;;11.50;100.00;102428.97;1827248;76;85568;-67
2022/02/28 11:00:57;;;;;;;67.37;62.07;;;;;;;11.57;100.00;102426.00;1884166;73;86462;-80
2022/02/28 11:06:43;;;;;;;71.73;66.00;;;;;;;11.73;100.00;102418.20;1856481;75;85661;-71
2022/02/28 11:12:29;;;;;;;68.77;63.40;;;;;;;11.72;100.00;102415.97;1985616;71;39660;-70
2022/02/28 11:18:20;;;;;;;67.50;62.60;;;;;;;11.82;100.00;102421.70;1979015;71;39452;-70
2022/02/28 11:24:07;;;;;;;66.50;61.97;;;;;;;12.03;100.00;102410.31;1936665;74;86171;-71
2022/02/28 11:29:55;;;;;;;67.93;62.80;;;;;;;12.15;100.00;102408.83;1871024;75;85423;-77
2022/02/28 11:35:53;;;;;;;67.53;62.93;;;;;;;12.14;100.00;102410.77;1810766;77;85613;-70
2022/02/28 11:41:57;;;;;;;70.13;65.20;;;;;;;12.38;100.00;102397.95;1808584;78;85528;-71
2022/02/28 11:47:42;;;;;;;67.83;62.80;;;;;;;12.36;100.00;102400.17;1866942;76;86466;-79
2022/02/28 11:53:43;;;;;;;72.03;67.20;;;;;;;12.27;100.00;102399.78;1909240;74;86552;-79
2022/02/28 11:56:57;;;;;;;71.77;67.05;;;;;;;12.34;100.00;102404.60;1886031;73;939044;-79
2022/02/28 12:02:43;;;;;;;68.47;63.80;;;;;;;12.64;100.00;102399.95;1864827;75;86004;-72
2022/02/28 12:08:54;;;;;;;67.63;62.80;;;;;;;12.56;100.00;102399.02;1879685;74;86237;-78
2022/02/28 12:15:28;;;;;;;66.37;61.77;;;;;;;12.59;100.00;102399.34;1808203;77;86499;-79
2022/02/28 12:21:14;;;;;;;69.00;64.30;;;;;;;12.64;100.00;102399.95;1877721;75;86437;-72
2022/02/28 12:24:03;;;;;;;71.40;66.30;;;;;;;12.64;100.00;102399.41;1862916;75;937508;-72
2022/02/28 12:26:36;;;;;;;69.70;64.87;;;;;;;12.70;100.00;102398.37;1834509;77;940874;-83
2022/02/28 12:32:52;;;;;;;64.40;60.10;;;;;;;12.95;100.00;102389.97;1984941;71;39807;-77
2022/02/28 12:38:39;;;;;;;63.80;59.53;;;;;;;12.92;100.00;102387.14;1896599;74;85421;-72
2022/02/28 12:44:24;;;;;;;66.57;62.00;;;;;;;12.68;100.00;102393.59;1941724;70;39524;-71
2022/02/28 12:50:10;;;;;;;66.87;62.20;;;;;;;12.74;100.00;102402.31;1886777;74;86163;-71
2022/02/28 12:55:59;;;;;;;65.47;61.17;;;;;;;12.65;100.00;102400.25;1884579;73;85385;-84
2022/02/28 13:01:44;;;;;;;67.00;62.50;;;;;;;12.65;100.00;102394.12;1805020;77;86516;-74
2022/02/28 13:07:28;;;;;;;65.23;60.93;;;;;;;12.82;100.00;102387.60;1984958;71;39454;-69
2022/02/28 13:13:23;;;;;;;73.87;68.57;;;;;;;12.69;100.00;102381.89;1975356;71;85356;-69
2022/02/28 13:19:15;;;;;;;64.03;59.83;;;;;;;12.66;100.00;102373.48;1802444;78;86300;-78
2022/02/28 13:21:53;;;;;;;67.80;63.60;;;;;;;12.82;100.00;102373.66;1751518;80;938110;-75
2022/02/28 13:27:42;;;;;;;64.83;60.73;;;;;;;12.66;100.00;102357.33;1870000;75;86377;-77
2022/02/28 13:33:30;;;;;;;66.47;62.50;;;;;;;12.72;100.00;102357.11;1977998;71;39639;-67
2022/02/28 13:39:24;;;;;;;66.63;62.17;;;;;;;12.65;100.00;102349.52;1987562;71;40300;-77
2022/02/28 13:45:12;;;;;;;64.77;60.67;;;;;;;12.61;100.00;102352.54;1858829;76;86068;-71
2022/02/28 13:51:00;;;;;;;63.43;59.70;;;;;;;12.50;100.00;102335.94;1797107;78;85831;-72
2022/02/28 13:57:11;;;;;;;64.57;60.77;;;;;;;12.37;100.00;102341.38;1801275;78;86583;-77
2022/02/28 14:02:57;;;;;;;64.93;61.10;;;;;;;12.33;100.00;102336.88;1906410;74;86259;-72
2022/02/28 14:11:49;;;;;;;65.27;61.17;;;;;;;12.32;100.00;102328.22;1967564;70;86422;-78
2022/02/28 14:14:20;;;;;;;66.33;62.13;;;;;;;12.13;100.00;102327.44;1887626;74;940020;-72
2022/02/28 14:16:58;;;;;;;63.53;59.73;;;;;;;12.26;100.00;102322.32;1891678;74;939060;-78
2022/02/28 14:19:37;;;;;;;62.87;58.97;;;;;;;12.26;100.00;102327.89;1891726;74;940898;-70
2022/02/28 14:25:23;;;;;;;62.20;58.57;;;;;;;12.21;100.00;102334.79;1985117;71;39640;-78
2022/02/28 14:31:09;;;;;;;63.90;59.80;;;;;;;12.42;100.00;102327.50;1844545;76;86040;-71
2022/02/28 14:37:00;;;;;;;65.10;60.87;;;;;;;12.41;100.00;102318.84;1936203;73;86438;-71
2022/02/28 14:42:44;;;;;;;65.93;61.60;;;;;;;12.41;100.00;102311.06;1904072;75;85738;-72
2022/02/28 14:48:28;;;;;;;67.27;62.57;;;;;;;12.07;100.00;102317.33;1875555;73;86373;-72
2022/02/28 14:57:29;;;;;;;65.37;61.23;;;;;;;12.07;100.00;102315.38;1912031;72;86197;-80
2022/02/28 15:03:14;;;;;;;66.97;62.87;;;;;;;12.03;100.00;102310.05;1811124;77;85503;-79
2022/02/28 15:08:57;;;;;;;67.43;63.27;;;;;;;12.00;100.00;102315.30;1797268;78;86299;-70
2022/02/28 15:14:42;;;;;;;67.63;63.37;;;;;;;11.85;100.00;102309.00;1799039;77;86373;-81
2022/02/28 15:20:26;;;;;;;68.87;64.43;;;;;;;11.78;100.00;102304.14;1980230;71;39632;-77
2022/02/28 15:26:11;;;;;;;69.47;65.07;;;;;;;11.91;100.00;102296.80;1842829;76;85965;-77
2022/02/28 15:31:55;;;;;;;67.00;62.67;;;;;;;11.89;100.00;102298.17;1884191;73;86398;-79
2022/02/28 15:37:40;;;;;;;69.30;64.53;;;;;;;11.89;100.00;102292.61;1801541;77;85501;-72
2022/02/28 15:43:28;;;;;;;68.63;63.90;;;;;;;11.86;100.00;102294.80;1816766;77;86249;-71
2022/02/28 15:49:13;;;;;;;68.40;63.90;;;;;;;11.91;100.00;102298.74;1977035;72;86336;-80
2022/02/28 15:54:58;;;;;;;68.30;63.87;;;;;;;11.85;100.00;102290.31;1801285;78;86232;-78
2022/02/28 16:00:44;;;;;;;70.50;65.90;;;;;;;11.86;100.00;102293.41;1806592;76;86245;-72
2022/02/28 16:06:28;;;;;;;70.17;65.20;;;;;;;11.92;100.00;102293.47;1985773;71;39600;-78
2022/02/28 16:12:12;;;;;;;72.67;67.97;;;;;;;11.91;100.00;102293.17;1838508;76;86371;-72
2022/02/28 16:17:56;;;;;;;71.27;66.23;;;;;;;11.86;100.00;102287.83;1840557;76;86794;-72
2022/02/28 16:23:41;;;;;;;68.77;64.10;;;;;;;11.89;100.00;102283.70;1806685;77;86359;-80
2022/02/28 16:29:26;;;;;;;73.07;68.07;;;;;;;11.81;100.00;102278.02;1980116;71;40301;-72
2022/02/28 16:35:11;;;;;;;70.17;65.47;;;;;;;11.94;100.00;102285.14;1826626;76;86012;-77
2022/02/28 16:40:59;;;;;;;69.13;64.00;;;;;;;11.88;100.00;102287.59;1833007;76;85359;-73
2022/02/28 16:46:43;;;;;;;71.83;66.60;;;;;;;11.90;100.00;102283.12;1799127;77;86386;-77
2022/02/28 16:52:29;;;;;;;69.83;64.77;;;;;;;11.82;100.00;102283.88;1838737;77;86457;-72
2022/02/28 16:58:17;;;;;;;68.90;64.03;;;;;;;11.82;100.00;102278.31;1892428;74;86345;-81
2022/02/28 17:04:02;;;;;;;68.80;63.70;;;;;;;11.75;100.00;102284.64;1906328;74;86501;-84
2022/02/28 17:09:45;;;;;;;68.77;63.83;;;;;;;11.79;100.00;102284.41;1792620;78;86637;-72
2022/02/28 17:15:29;;;;;;;68.57;63.37;;;;;;;11.70;100.00;102284.53;1910810;74;86177;-71
2022/02/28 17:21:16;;;;;;;71.53;66.47;;;;;;;11.68;100.00;102295.64;1984220;71;39687;-75
2022/02/28 17:27:05;;;;;;;69.07;63.70;;;;;;;11.64;100.00;102306.97;1888276;74;85307;-78
2022/02/28 17:32:52;;;;;;;75.17;69.40;;;;;;;11.57;100.00;102301.60;1872082;74;86188;-74
2022/02/28 17:38:38;;;;;;;65.87;60.43;;;;;;;11.56;100.00;102314.37;1920458;73;86322;-73
2022/02/28 17:44:23;;;;;;;65.13;60.00;;;;;;;11.47;100.00;102322.31;1963687;71;39583;-77
2022/02/28 17:50:09;;;;;;;67.43;61.93;;;;;;;11.34;100.00;102326.30;1924267;72;86305;-70
2022/02/28 17:55:56;;;;;;;65.77;60.57;;;;;;;11.23;100.00;102337.52;1873622;74;86076;-76
2022/02/28 18:01:43;;;;;;;62.67;57.63;;;;;;;11.16;100.00;102335.47;1868538;75;85611;-78
2022/02/28 18:07:29;;;;;;;60.87;55.53;;;;;;;11.12;100.00;102350.44;1985681;71;48144;-76
2022/02/28 18:13:13;;;;;;;59.40;54.13;;;;;;;11.15;100.00;102354.09;1810529;78;86309;-77
2022/02/28 18:18:57;;;;;;;57.90;52.93;;;;;;;11.06;100.00;102370.05;1801400;78;86042;-75
2022/02/28 18:24:42;;;;;;;59.23;53.83;;;;;;;11.01;100.00;102371.34;1799146;77;86402;-75
2022/02/28 18:30:27;;;;;;;57.20;52.23;;;;;;;11.00;100.00;102372.43;1978766;71;39638;-76
2022/02/28 18:36:12;;;;;;;60.10;54.73;;;;;;;11.02;100.00;102374.43;1846764;76;85623;-76
2022/02/28 18:41:56;;;;;;;60.50;55.33;;;;;;;10.76;100.00;102330.04;1826470;74;85604;-77
2022/02/28 18:47:41;;;;;;;61.13;55.83;;;;;;;10.95;100.00;102382.37;1808742;77;86342;-74
2022/02/28 18:53:25;;;;;;;61.00;56.07;;;;;;;10.96;100.00;102384.06;1985978;71;39529;-76
2022/02/28 18:59:11;;;;;;;59.93;54.73;;;;;;;10.90;100.00;102387.02;1832321;75;86669;-76
2022/02/28 19:04:56;;;;;;;59.43;53.90;;;;;;;10.86;100.00;102378.34;1848128;75;86330;-77
2022/02/28 19:10:39;;;;;;;58.80;53.47;;;;;;;10.89;100.00;102388.95;1808392;76;86579;-75
2022/02/28 19:16:23;;;;;;;56.70;51.60;;;;;;;10.85;100.00;102390.55;1986239;71;39623;-75
2022/02/28 19:22:07;;;;;;;57.73;52.70;;;;;;;10.85;100.00;102386.37;1834562;76;86162;-74
2022/02/28 19:27:54;;;;;;;58.93;53.40;;;;;;;10.74;100.00;102392.00;1901576;73;86548;-75
2022/02/28 19:33:39;;;;;;;55.47;50.00;;;;;;;10.72;100.00;102390.00;1801454;77;86362;-75
2022/02/28 19:39:25;;;;;;;56.23;50.57;;;;;;;10.74;100.00;102392.00;1986482;71;39570;-73
2022/02/28 19:45:10;;;;;;;57.70;51.87;;;;;;;10.72;100.00;102396.41;1839238;76;86612;-75
2022/02/28 19:50:54;;;;;;;55.00;49.87;;;;;;;10.66;100.00;102394.61;1890292;73;86247;-76
2022/02/28 19:56:39;;;;;;;56.77;51.40;;;;;;;10.68;100.00;102404.95;1804675;77;85436;-76
2022/02/28 20:02:23;;;;;;;55.50;48.93;;;;;;;10.66;100.00;102402.95;1952183;71;39497;-76
2022/02/28 20:08:07;;;;;;;57.53;52.10;;;;;;;10.61;100.00;102408.40;1980262;70;86414;-74
2022/02/28 20:13:51;;;;;;;55.20;49.80;;;;;;;10.63;100.00;102403.45;1877680;74;86268;-74
2022/02/28 20:19:35;;;;;;;55.43;49.90;;;;;;;10.70;100.00;102413.02;1913448;72;85683;-75
2022/02/28 20:25:20;;;;;;;56.50;51.00;;;;;;;10.70;100.00;102411.08;1987003;71;40035;-75
2022/02/28 20:31:07;;;;;;;57.03;51.23;;;;;;;10.70;100.00;102410.23;1981778;69;85445;-76
2022/02/28 20:36:51;;;;;;;58.70;52.83;;;;;;;10.71;100.00;102408.61;1914745;73;86339;-77
2022/02/28 20:42:35;;;;;;;58.80;53.10;;;;;;;10.71;100.00;102407.22;1919383;73;86269;-76
2022/02/28 20:48:21;;;;;;;57.63;51.73;;;;;;;10.70;100.00;102405.52;1985462;71;39565;-74
2022/02/28 20:54:05;;;;;;;59.57;53.27;;;;;;;10.67;100.00;102413.52;1834934;76;86305;-77
2022/02/28 20:59:49;;;;;;;60.47;55.03;;;;;;;10.68;100.00;102416.06;1896946;75;86505;-77
2022/02/28 21:05:33;;;;;;;58.93;53.47;;;;;;;10.81;100.00;102417.16;1904869;72;85466;-75
2022/02/28 21:11:19;;;;;;;59.90;54.20;;;;;;;10.70;100.00;102423.59;1983208;71;39553;-75
2022/02/28 21:17:03;;;;;;;57.57;51.97;;;;;;;10.72;100.00;102424.20;1842247;76;85984;-76
2022/02/28 21:22:48;;;;;;;58.57;52.67;;;;;;;10.74;100.00;102426.74;1874110;75;86429;-78
2022/02/28 21:28:32;;;;;;;59.13;53.53;;;;;;;10.80;100.00;102428.52;1910613;72;86315;-76
2022/02/28 21:34:17;;;;;;;59.93;53.83;;;;;;;10.75;100.00;102429.25;1981641;71;39484;-74
2022/02/28 21:40:01;;;;;;;59.13;53.13;;;;;;;10.90;100.00;102441.23;1888280;74;85315;-79
2022/02/28 21:45:46;;;;;;;59.13;53.47;;;;;;;10.82;100.00;102434.14;1812842;77;86504;-78
2022/02/28 21:51:30;;;;;;;58.00;52.53;;;;;;;10.84;100.00;102430.55;1925388;73;86510;-76
2022/02/28 21:57:14;;;;;;;58.63;52.97;;;;;;;10.81;100.00;102438.00;1809122;78;86488;-75
2022/02/28 22:02:59;;;;;;;58.97;53.13;;;;;;;10.86;100.00;102434.48;1809274;78;86544;-75
2022/02/28 22:08:42;;;;;;;59.70;54.13;;;;;;;10.93;100.00;102435.16;1804765;77;86223;-74
2022/02/28 22:14:26;;;;;;;58.27;52.67;;;;;;;10.99;100.00;102436.11;1921885;71;39604;-75
2022/02/28 22:20:12;;;;;;;57.60;52.30;;;;;;;10.96;100.00;102438.83;1838836;76;86397;-76
2022/02/28 22:25:56;;;;;;;61.20;55.70;;;;;;;10.92;100.00;102430.14;1818207;78;86122;-75
2022/02/28 22:31:41;;;;;;;58.83;53.47;;;;;;;10.93;100.00;102430.99;1753452;79;86245;-76
2022/02/28 22:37:26;;;;;;;60.53;54.63;;;;;;;10.95;100.00;102438.55;1975814;71;39687;-76
2022/02/28 22:43:11;;;;;;;60.07;54.43;;;;;;;10.99;100.00;102442.52;1835851;76;85328;-76
2022/02/28 22:48:55;;;;;;;60.83;54.90;;;;;;;10.95;100.00;102439.38;1907668;73;86155;-74
2022/02/28 22:54:38;;;;;;;58.93;53.33;;;;;;;10.90;100.00;102445.41;1860786;76;86507;-74
2022/02/28 23:01:17;;;;;;;58.77;53.37;;;;;;;10.94;100.00;102446.05;1987333;71;39442;-74
2022/02/28 23:06:59;;;;;;;59.23;53.77;;;;;;;10.86;100.00;102454.79;1809329;78;85509;-75
2022/02/28 23:19:04;;;;;;;61.00;55.30;;;;;;;10.84;100.00;102438.89;1852964;76;86067;-75
2022/02/28 23:24:48;;;;;;;57.67;52.10;;;;;;;10.85;100.00;102440.58;1884816;74;86267;-75
2022/02/28 23:30:33;;;;;;;60.87;55.33;;;;;;;10.84;100.00;102433.33;1936859;73;85511;-74
2022/02/28 23:36:17;;;;;;;57.07;51.67;;;;;;;10.84;100.00;102433.33;1979164;71;39760;-75
2022/02/28 23:42:01;;;;;;;60.57;55.17;;;;;;;10.80;100.00;102429.36;1887704;74;85331;-74
2022/02/28 23:47:45;;;;;;;58.40;52.83;;;;;;;10.80;100.00;102433.53;1874367;74;85583;-75
2022/02/28 23:53:29;;;;;;;61.27;55.93;;;;;;;10.79;100.00;102443.49;1865502;75;86140;-74
2022/02/28 23:59:13;;;;;;;61.23;55.93;;;;;;;10.84;100.00;102444.45;1984301;72;86290;-74
